Time;durP1;ratioP1;P1;durP2;ratioP2;P2;SDS_P1;SDS_P2;PMS_P1;PMS_P2;Temp;Humidity;BMP_temperature;BMP_pressure;BME280_temperature;BME280_humidity;BME280_pressure;Samples;Min_cycle;Max_cycle;Signal;HPM_P1;HPM_P2
2021/03/04 00:02:09;;;;;;;;;;;6.30;82.30;;;5.20;60.97;96417.53;10365534;28;1848;-88
2021/03/04 00:07:12;;;;;;;;;;;6.30;82.00;;;5.16;61.36;96419.84;10341291;28;1945;-84
2021/03/04 00:12:15;;;;;;;;;;;6.10;82.20;;;5.15;61.31;96404.88;10324196;28;1912;-85
2021/03/04 00:17:17;;;;;;;;;;;7.20;82.80;;;5.14;61.23;96396.06;10320116;28;2056;-85
2021/03/04 00:22:19;;;;;;;;;;;6.30;82.30;;;5.15;60.84;96395.03;10325653;28;1892;-86
2021/03/04 00:27:25;;;;;;;;;;;6.70;82.70;;;5.19;61.57;96382.06;10323328;28;1984;-88
2021/03/04 00:32:27;;;;;;;;;;;6.10;82.70;;;5.19;60.91;96384.72;10348629;28;1898;-87
2021/03/04 00:37:29;;;;;;;;;;;6.10;82.50;;;5.22;61.09;96381.63;10341469;28;1892;-87
2021/03/04 00:42:31;;;;;;;;;;;6.20;82.50;;;5.23;61.24;96371.78;10328739;28;1997;-88
2021/03/04 00:47:36;;;;;;;;;;;6.10;82.30;;;5.21;60.83;96369.31;10326832;28;1538;-87
2021/03/04 00:52:39;;;;;;;;;;;6.10;82.10;;;5.17;61.34;96365.50;10323456;28;1914;-86
2021/03/04 00:57:41;;;;;;;;;;;7.30;82.80;;;5.19;60.35;96355.41;10322959;28;2055;-89
2021/03/04 01:02:46;;;;;;;;;;;7.80;82.90;;;5.12;60.72;96350.16;10319048;28;1690;-87
2021/03/04 01:07:49;;;;;;;;;;;6.20;82.10;;;5.19;59.99;96339.44;10322338;28;1838;-86
2021/03/04 01:12:51;;;;;;;;;;;6.10;81.80;;;5.21;60.24;96341.84;10336750;28;1919;-87
2021/03/04 01:17:56;;;;;;;;;;;6.60;82.00;;;5.28;59.75;96327.41;10311780;28;1773;-86
2021/03/04 01:23:02;;;;;;;;;;;6.10;81.40;;;5.30;59.64;96314.66;10331555;28;1965;-85
2021/03/04 01:28:14;;;;;;;;;;;7.10;81.90;;;5.31;59.58;96310.97;10346756;28;1730;-87
2021/03/04 01:33:16;;;;;;;;;;;6.20;81.10;;;5.29;59.43;96302.38;10332123;28;2013;-85
2021/03/04 01:38:22;;;;;;;;;;;6.30;81.00;;;5.29;59.53;96301.56;10317091;28;1904;-85
2021/03/04 01:43:27;;;;;;;;;;;6.40;81.10;;;5.32;59.04;96291.25;10314553;28;2156;-86
2021/03/04 01:48:30;;;;;;;;;;;6.40;81.10;;;5.32;59.20;96274.44;10321521;28;1403;-85
2021/03/04 01:53:34;;;;;;;;;;;7.00;81.40;;;5.40;58.46;96282.94;10327671;28;2109;-85
2021/03/04 01:58:38;;;;;;;;;;;6.60;80.50;;;5.47;58.01;96272.19;10330776;28;1758;-86
2021/03/04 02:03:40;;;;;;;;;;;7.10;80.40;;;5.45;58.28;96270.78;10321032;28;1975;-88
2021/03/04 02:08:47;;;;;;;;;;;7.00;80.40;;;5.44;58.39;96269.97;10324135;28;2078;-87
2021/03/04 02:13:52;;;;;;;;;;;6.80;80.10;;;5.53;56.98;96262.44;10329556;28;1903;-84
2021/03/04 02:19:04;;;;;;;;;;;5.90;78.80;;;5.56;56.73;96251.31;10339360;28;1380;-87
2021/03/04 02:24:09;;;;;;;;;;;6.40;78.60;;;5.61;56.07;96243.44;10332762;28;1908;-86
2021/03/04 02:29:12;;;;;;;;;;;6.40;78.20;;;5.66;54.97;96232.88;10339690;28;2099;-88
2021/03/04 02:34:16;;;;;;;;;;;7.30;77.80;;;5.66;55.00;96238.22;10346415;28;2158;-87
2021/03/04 02:39:20;;;;;;;;;;;7.90;77.90;;;5.65;54.63;96237.41;10311761;28;2430;-86
2021/03/04 02:44:25;;;;;;;;;;;7.70;77.30;;;5.71;54.16;96230.34;10339335;28;2065;-87
2021/03/04 02:49:32;;;;;;;;;;;7.80;77.00;;;5.75;53.66;96231.50;10345832;28;1908;-87
2021/03/04 02:54:34;;;;;;;;;;;6.40;75.70;;;5.77;52.79;96234.75;10361159;28;2057;-85
2021/03/04 02:59:38;;;;;;;;;;;7.30;75.50;;;5.78;52.66;96228.34;10346674;28;2018;-87
2021/03/04 03:04:45;;;;;;;;;;;6.60;74.50;;;5.84;53.67;96235.44;10337105;28;2117;-88
2021/03/04 03:09:49;;;;;;;;;;;7.10;75.10;;;5.89;52.33;96227.56;10351195;28;1997;-89
2021/03/04 03:14:54;;;;;;;;;;;6.80;74.10;;;5.88;52.30;96217.94;10349373;28;2027;-88
2021/03/04 03:19:59;;;;;;;;;;;7.70;74.50;;;5.88;52.19;96215.25;10357196;28;1986;-86
2021/03/04 03:25:03;;;;;;;;;;;6.80;73.80;;;5.88;52.38;96223.25;10340942;28;2476;-88
2021/03/04 03:30:06;;;;;;;;;;;7.50;74.40;;;5.87;52.20;96213.66;10324382;28;1889;-85
2021/03/04 03:35:08;;;;;;;;;;;6.80;73.70;;;5.89;51.92;96216.88;10324853;28;2084;-86
2021/03/04 03:40:10;;;;;;;;;;;6.80;73.50;;;5.87;51.83;96218.16;10324583;28;2178;-88
2021/03/04 03:45:16;;;;;;;;;;;7.60;73.80;;;5.84;51.57;96216.75;10340825;28;1953;-88
2021/03/04 03:50:21;;;;;;;;;;;7.60;73.70;;;5.89;51.49;96213.41;10345243;28;2063;-88
2021/03/04 03:55:26;;;;;;;;;;;6.90;73.10;;;5.88;51.85;96212.59;10347190;28;2008;-88
2021/03/04 04:00:28;;;;;;;;;;;7.50;73.70;;;5.96;51.36;96212.25;10358617;28;1981;-89
2021/03/04 04:05:30;;;;;;;;;;;7.50;73.20;;;5.94;51.27;96214.38;10358756;28;1795;-86
2021/03/04 04:10:32;;;;;;;;;;;6.90;72.80;;;5.97;51.51;96219.22;10352704;28;2058;-88
2021/03/04 04:15:38;;;;;;;;;;;8.00;73.50;;;5.95;51.64;96205.31;10332203;28;2027;-87
2021/03/04 04:20:40;;;;;;;;;;;7.70;73.50;;;5.97;51.64;96205.88;10339025;28;2134;-87
2021/03/04 04:25:44;;;;;;;;;;;8.30;73.70;;;6.00;51.34;96209.94;10365481;28;2033;-89
2021/03/04 04:30:49;;;;;;;;;;;6.90;73.10;;;5.99;51.60;96204.84;10353907;28;1827;-90
2021/03/04 04:35:55;;;;;;;;;;;7.50;73.40;;;5.99;51.80;96199.53;10355498;28;2161;-87
2021/03/04 04:41:00;;;;;;;;;;;6.90;73.10;;;6.01;51.73;96200.91;10344996;28;2097;-88
2021/03/04 04:46:13;;;;;;;;;;;6.90;73.00;;;6.00;51.92;96187.78;10350326;28;1897;-86
2021/03/04 04:51:16;;;;;;;;;;;7.60;73.40;;;6.03;51.48;96184.63;10336116;28;2043;-86
2021/03/04 04:56:20;;;;;;;;;;;6.90;72.90;;;6.01;51.45;96182.22;10318052;28;2043;-86
2021/03/04 05:01:29;;;;;;;;;;;7.90;73.30;;;6.03;51.11;96182.78;10323738;28;2115;-87
2021/03/04 05:06:34;;;;;;;;;;;7.00;72.50;;;6.06;51.14;96181.53;10329651;28;2031;-83
2021/03/04 05:11:37;;;;;;;;;;;6.90;72.60;;;6.08;50.73;96168.75;10288006;28;2513;-87
2021/03/04 05:16:39;;;;;;;;;;;7.00;72.30;;;6.07;51.26;96161.78;10346600;28;2162;-89
2021/03/04 05:21:43;;;;;;;;;;;7.50;72.80;;;6.07;51.36;96161.78;10355528;28;1744;-88
2021/03/04 05:26:47;;;;;;;;;;;7.00;72.50;;;6.09;50.84;96159.69;10356699;28;1638;-84
2021/03/04 05:31:55;;;;;;;;;;;6.90;72.30;;;6.10;50.87;96143.44;10334126;28;2090;-84
2021/03/04 05:37:01;;;;;;;;;;;7.00;72.10;;;6.12;51.13;96145.88;10331613;28;2186;-86
2021/03/04 05:42:05;;;;;;;;;;;7.00;72.20;;;6.09;50.93;96144.47;10313138;28;2116;-86
2021/03/04 05:47:13;;;;;;;;;;;7.00;72.10;;;6.13;50.81;96142.16;10312011;28;2004;-87
2021/03/04 05:52:18;;;;;;;;;;;7.60;72.60;;;6.11;50.87;96133.59;10312827;28;1984;-86
2021/03/04 05:57:25;;;;;;;;;;;7.00;72.30;;;6.11;51.34;96146.94;10313165;28;2124;-86
2021/03/04 06:02:29;;;;;;;;;;;7.00;72.60;;;6.13;51.45;96144.84;10325840;28;2112;-87
2021/03/04 06:07:32;;;;;;;;;;;7.10;72.70;;;6.15;51.33;96132.84;10322191;28;2035;-88
2021/03/04 06:12:36;;;;;;;;;;;7.00;72.60;;;6.17;51.28;96137.94;10334479;28;2029;-86
2021/03/04 06:17:40;;;;;;;;;;;8.10;73.20;;;6.19;51.81;96130.53;10336584;28;2103;-86
2021/03/04 06:22:45;;;;;;;;;;;8.30;73.80;;;6.29;51.29;96130.72;10320697;28;1920;-87
2021/03/04 06:27:47;;;;;;;;;;;8.50;73.60;;;6.34;51.18;96133.50;10328722;28;2117;-84
2021/03/04 06:32:50;;;;;;;;;;;7.20;72.60;;;6.43;51.43;96125.94;10291514;28;785637;-86
2021/03/04 06:37:57;;;;;;;;;;;8.70;73.40;;;6.54;50.37;96126.91;10327993;28;2413;-85
2021/03/04 06:43:03;;;;;;;;;;;8.20;72.90;;;6.61;50.15;96128.38;10324895;28;2166;-85
2021/03/04 06:48:06;;;;;;;;;;;8.90;72.90;;;6.71;50.73;96122.44;10332795;28;2126;-87
2021/03/04 06:53:14;;;;;;;;;;;7.60;72.10;;;6.78;50.70;96125.75;10356557;28;2042;-86
2021/03/04 06:58:17;;;;;;;;;;;7.70;72.00;;;6.93;49.99;96126.00;10338864;28;1921;-84
2021/03/04 07:03:19;;;;;;;;;;;8.00;72.00;;;7.09;49.37;96113.72;10318132;28;1999;-85
2021/03/04 07:08:23;;;;;;;;;;;8.60;71.90;;;7.22;49.95;96117.94;10334915;28;1983;-85
2021/03/04 07:13:28;;;;;;;;;;;8.00;71.80;;;7.31;49.11;96117.25;10341040;28;2063;-86
2021/03/04 07:18:32;;;;;;;;;;;8.10;70.90;;;7.51;48.82;96115.97;10370218;28;1966;-86
2021/03/04 07:23:47;;;;;;;;;;;9.10;71.40;;;7.64;47.30;96110.28;10359493;28;1445;-86
2021/03/04 07:28:55;;;;;;;;;;;8.40;69.70;;;7.75;47.00;96116.56;10357614;28;2000;-84
2021/03/04 07:34:13;;;;;;;;;;;9.60;69.30;;;8.02;45.50;96109.44;10333360;28;1907;-86
2021/03/04 07:39:21;;;;;;;;;;;9.00;68.00;;;8.14;45.23;96101.25;10341331;28;2286;-85
2021/03/04 07:44:26;;;;;;;;;;;8.90;67.10;;;8.46;44.64;96101.41;10349405;28;1810;-87
2021/03/04 07:49:28;;;;;;;;;;;9.90;67.30;;;8.68;44.34;96087.13;10322910;28;1837;-86
2021/03/04 07:54:33;;;;;;;;;;;9.40;66.40;;;8.83;43.45;96089.94;10341332;28;2031;-86
2021/03/04 07:59:38;;;;;;;;;;;10.00;66.00;;;9.01;43.12;96086.09;10359323;28;2039;-85
2021/03/04 08:04:42;;;;;;;;;;;9.70;65.10;;;9.07;42.89;96079.69;10340629;28;2330;-86
2021/03/04 08:09:44;;;;;;;;;;;10.20;64.80;;;9.07;42.76;96071.66;10336512;28;1872;-85
2021/03/04 08:14:47;;;;;;;;;;;9.90;64.40;;;9.23;42.21;96067.22;10340204;28;1963;-86
2021/03/04 08:19:49;;;;;;;;;;;10.00;63.90;;;9.47;41.01;96068.44;10338121;28;1637;-85
2021/03/04 08:24:52;;;;;;;;;;;10.20;63.30;;;9.76;41.06;96063.50;10335729;28;1746;-85
2021/03/04 08:29:58;;;;;;;;;;;10.40;63.40;;;9.80;40.04;96063.78;10320094;28;1987;-86
2021/03/04 08:35:00;;;;;;;;;;;10.60;61.60;;;10.25;39.29;96055.97;10434165;23;3556;-85
2021/03/04 08:40:08;;;;;;;;;;;10.90;61.60;;;10.62;38.22;96046.06;10330659;28;2361;-85
2021/03/04 08:45:29;;;;;;;;;;;11.20;60.30;;;10.81;37.28;96034.56;10319865;28;1937;-86
2021/03/04 08:50:42;;;;;;;;;;;11.50;59.40;;;10.85;36.77;96034.81;10324688;28;1863;-89
2021/03/04 08:55:53;;;;;;;;;;;11.60;58.40;;;11.05;36.51;96018.66;10351597;28;1903;-86
2021/03/04 09:01:01;;;;;;;;;;;11.80;58.00;;;10.87;37.10;96019.19;10342857;28;2050;-87
2021/03/04 09:06:09;;;;;;;;;;;11.80;57.80;;;11.19;36.22;96018.91;10327819;28;2017;-88
2021/03/04 09:11:20;;;;;;;;;;;11.90;57.80;;;11.21;36.66;96011.38;10329162;28;1994;-86
2021/03/04 09:16:29;;;;;;;;;;;12.00;57.80;;;11.34;36.40;96000.06;10327341;28;1934;-87
2021/03/04 09:22:02;;;;;;;;;;;12.10;57.40;;;11.59;35.51;96006.47;10347624;28;1176;-87
2021/03/04 09:27:19;;;;;;;;;;;12.30;57.20;;;11.56;35.79;95988.97;10342611;28;2008;-86
2021/03/04 09:32:32;;;;;;;;;;;12.50;56.70;;;11.91;35.35;95984.56;10336402;28;2337;-86
2021/03/04 09:43:31;;;;;;;;;;;12.70;55.70;;;11.87;35.41;95970.03;10327740;28;2141;-86
2021/03/04 09:48:53;;;;;;;;;;;12.80;55.90;;;12.16;35.29;95965.56;10363129;28;2333;-86
2021/03/04 09:54:11;;;;;;;;;;;13.00;56.10;;;12.29;35.36;95956.06;10318356;28;1978;-87
2021/03/04 09:59:44;;;;;;;;;;;13.20;55.50;;;12.67;34.59;95956.31;10304338;28;1643;-85
2021/03/04 10:05:13;;;;;;;;;;;13.40;55.50;;;12.55;34.99;95948.59;10314075;28;2008;-87
2021/03/04 10:10:35;;;;;;;;;;;13.60;55.00;;;12.78;33.53;95936.25;10340181;28;1618;-87
2021/03/04 10:15:50;;;;;;;;;;;13.60;54.30;;;12.53;32.84;95939.94;10326517;28;1979;-86
2021/03/04 10:20:59;;;;;;;;;;;13.60;53.20;;;12.22;32.36;95934.00;10317283;28;1921;-86
2021/03/04 10:26:03;;;;;;;;;;;13.30;52.60;;;12.05;32.72;95922.78;10310805;28;1985;-85
2021/03/04 10:31:09;;;;;;;;;;;13.00;52.70;;;11.94;32.92;95916.66;10341106;28;1944;-86
2021/03/04 10:36:12;;;;;;;;;;;12.90;53.00;;;11.89;33.41;95914.78;10342251;28;1966;-87
2021/03/04 10:41:17;;;;;;;;;;;12.80;53.50;;;11.41;33.61;95902.06;10329079;28;2131;-88
2021/03/04 10:46:22;;;;;;;;;;;12.60;52.60;;;11.42;33.53;95906.38;10346060;28;2104;-80
2021/03/04 10:51:32;;;;;;;;;;;12.50;53.10;;;11.59;32.78;95901.47;10337246;28;1798;-85
2021/03/04 10:56:34;;;;;;;;;;;12.50;53.20;;;11.69;32.93;95901.41;10330179;28;1978;-86
2021/03/04 11:01:40;;;;;;;;;;;12.60;53.00;;;11.69;33.67;95885.25;10314668;28;2126;-87
2021/03/04 11:06:43;;;;;;;;;;;12.70;53.20;;;11.84;33.25;95874.44;10333999;28;2034;-86
2021/03/04 11:11:47;;;;;;;;;;;12.80;52.90;;;12.01;33.28;95870.53;10339966;28;2104;-85
2021/03/04 11:16:49;;;;;;;;;;;12.90;53.10;;;12.36;33.59;95854.09;10334184;28;1895;-88
2021/03/04 11:21:52;;;;;;;;;;;13.20;53.30;;;12.49;32.37;95854.53;10324495;28;1917;-86
2021/03/04 11:27:04;;;;;;;;;;;13.40;52.10;;;12.56;32.09;95853.13;10310325;28;2012;-86
2021/03/04 11:32:12;;;;;;;;;;;13.50;52.50;;;12.65;32.47;95856.00;10319834;28;1410;-86
2021/03/04 11:37:36;;;;;;;;;;;13.60;52.20;;;12.74;32.48;95838.13;10313893;28;2066;-84
2021/03/04 11:42:48;;;;;;;;;;;13.70;52.50;;;12.77;33.19;95832.13;10319972;28;1981;-87
2021/03/04 11:47:53;;;;;;;;;;;13.80;52.70;;;12.89;32.97;95807.47;10320123;28;1844;-88
2021/03/04 11:52:56;;;;;;;;;;;13.80;52.80;;;13.18;32.49;95793.91;10332579;28;2019;-88
2021/03/04 11:58:04;;;;;;;;;;;13.90;52.60;;;13.19;32.20;95784.72;10304346;28;1996;-86
2021/03/04 12:03:13;;;;;;;;;;;14.10;51.90;;;13.29;32.46;95767.59;10325861;28;1858;-86
2021/03/04 12:08:17;;;;;;;;;;;14.20;51.70;;;13.44;32.51;95749.31;10324381;28;2293;-88
2021/03/04 12:13:48;;;;;;;;;;;14.30;52.20;;;13.60;31.31;95740.97;10304565;28;1919;-87
2021/03/04 12:18:56;;;;;;;;;;;14.50;51.60;;;13.68;29.78;95727.63;10317829;28;1903;-84
2021/03/04 12:24:06;;;;;;;;;;;14.60;49.40;;;13.70;29.09;95732.72;10324549;28;2060;-87
2021/03/04 12:29:25;;;;;;;;;;;14.60;48.60;;;13.73;28.75;95724.81;10312567;28;2125;-83
2021/03/04 12:34:29;;;;;;;;;;;14.60;48.10;;;13.87;28.96;95716.78;10313822;28;2141;-82
2021/03/04 12:39:48;;;;;;;;;;;14.70;48.50;;;14.10;28.63;95719.63;10300775;28;2279;-85
2021/03/04 12:44:50;;;;;;;;;;;14.80;48.30;;;14.05;28.69;95713.22;10308887;28;2072;-87
2021/03/04 12:50:01;;;;;;;;;;;14.90;48.00;;;13.96;28.98;95701.50;10316484;28;2156;-85
2021/03/04 12:55:08;;;;;;;;;;;14.90;48.40;;;14.27;29.33;95695.53;10302801;28;1969;-85
2021/03/04 13:00:10;;;;;;;;;;;14.90;48.80;;;14.35;29.11;95697.56;10323639;28;2042;-85
2021/03/04 13:05:25;;;;;;;;;;;15.10;48.60;;;14.42;28.87;95694.44;10314607;28;2083;-85
2021/03/04 13:10:31;;;;;;;;;;;15.20;48.20;;;14.29;29.02;95693.34;10326162;28;2055;-85
2021/03/04 13:15:36;;;;;;;;;;;15.10;48.40;;;14.11;29.38;95686.91;10315322;28;1949;-87
2021/03/04 13:20:41;;;;;;;;;;;15.00;48.80;;;14.06;29.79;95684.31;10308193;28;2382;-85
2021/03/04 13:25:49;;;;;;;;;;;15.00;48.80;;;14.15;29.48;95677.09;10309054;28;1945;-87
2021/03/04 13:31:00;;;;;;;;;;;15.00;48.40;;;13.98;28.68;95664.16;10295928;28;2326;-87
2021/03/04 13:36:06;;;;;;;;;;;14.90;47.90;;;13.78;28.16;95667.22;10288092;28;2007;-86
2021/03/04 13:41:14;;;;;;;;;;;14.80;47.20;;;13.91;29.29;95661.03;10343814;28;2074;-85
2021/03/04 13:46:17;;;;;;;;;;;14.70;48.10;;;13.90;28.75;95654.03;10317790;28;2133;-85
2021/03/04 13:51:23;;;;;;;;;;;15.80;48.60;;;14.06;29.08;95647.28;10322569;28;1989;-83
2021/03/04 13:56:27;;;;;;;;;;;14.90;48.40;;;13.87;29.14;95638.44;10316679;28;1938;-86
2021/03/04 14:01:30;;;;;;;;;;;14.90;47.80;;;13.85;30.42;95643.31;10316356;28;2075;-87
2021/03/04 14:06:34;;;;;;;;;;;14.80;48.90;;;13.79;28.58;95641.78;10301306;28;2088;-86
2021/03/04 14:11:42;;;;;;;;;;;14.70;47.50;;;13.81;28.23;95644.22;10309210;28;2056;-86
2021/03/04 14:16:51;;;;;;;;;;;14.70;47.20;;;13.82;27.23;95630.41;10317556;28;2025;-84
2021/03/04 14:27:27;;;;;;;;;;;14.70;45.30;;;14.14;25.60;95623.34;10334132;28;2016;-85
2021/03/04 14:32:34;;;;;;;;;;;14.90;44.50;;;13.88;27.30;95623.81;10331489;28;1941;-86
2021/03/04 14:37:39;;;;;;;;;;;14.90;45.70;;;13.88;26.58;95618.41;10326110;28;1888;-88
2021/03/04 14:43:04;;;;;;;;;;;14.80;45.30;;;13.92;25.98;95608.59;10323779;28;2102;-84
2021/03/04 14:48:11;;;;;;;;;;;14.70;44.80;;;13.96;26.44;95603.41;10321147;28;2013;-86
2021/03/04 14:53:43;;;;;;;;;;;14.80;45.30;;;13.86;28.16;95601.69;10316009;28;2021;-87
2021/03/04 14:58:47;;;;;;;;;;;14.80;46.30;;;13.71;29.63;95593.88;10313109;28;1986;-85
2021/03/04 15:03:54;;;;;;;;;;;14.70;47.80;;;13.64;30.06;95596.16;10319037;28;2025;-86
2021/03/04 15:09:00;;;;;;;;;;;14.60;48.50;;;13.45;30.46;95599.69;10329714;28;2019;-86
2021/03/04 15:14:10;;;;;;;;;;;14.40;48.40;;;13.49;30.57;95587.22;10326849;28;2360;-83
2021/03/04 15:19:25;;;;;;;;;;;14.30;49.20;;;13.37;29.63;95597.69;10319744;28;2384;-84
2021/03/04 15:24:28;;;;;;;;;;;14.30;48.40;;;13.36;29.38;95590.69;10315531;28;2084;-87
2021/03/04 15:29:31;;;;;;;;;;;14.30;48.40;;;13.38;30.41;95577.69;10311915;28;1911;-85
2021/03/04 15:34:40;;;;;;;;;;;14.20;48.90;;;13.21;30.99;95577.41;10328342;28;1879;-87
2021/03/04 15:39:54;;;;;;;;;;;14.10;49.60;;;13.15;30.47;95573.16;10336665;28;1768;-87
2021/03/04 15:44:57;;;;;;;;;;;14.10;49.00;;;12.90;30.95;95572.47;10320599;28;1800;-84
2021/03/04 15:49:59;;;;;;;;;;;14.00;49.10;;;12.65;31.20;95575.53;10353336;28;1797;-88
2021/03/04 15:55:05;;;;;;;;;;;13.70;49.80;;;12.58;32.00;95565.09;10339759;28;2002;-85
2021/03/04 16:00:12;;;;;;;;;;;13.60;50.20;;;12.51;32.07;95558.47;10342842;28;2000;-83
2021/03/04 16:05:15;;;;;;;;;;;13.50;50.50;;;12.39;32.36;95569.69;10344647;28;1371;-88
2021/03/04 16:10:26;;;;;;;;;;;13.40;50.80;;;12.25;33.66;95561.50;10366805;28;1676;-87
2021/03/04 16:15:30;;;;;;;;;;;13.30;51.40;;;12.19;33.50;95551.88;10347044;28;1976;-86
2021/03/04 16:20:45;;;;;;;;;;;13.20;51.80;;;11.99;34.76;95561.03;10358613;28;1662;-87
2021/03/04 16:25:50;;;;;;;;;;;13.00;52.60;;;11.96;34.49;95563.47;10348750;28;1800;-85
2021/03/04 16:31:02;;;;;;;;;;;13.00;53.20;;;11.90;36.09;95558.16;10347202;28;1717;-87
2021/03/04 16:36:06;;;;;;;;;;;12.90;53.90;;;11.73;36.12;95549.69;10333872;28;2059;-84
2021/03/04 16:41:13;;;;;;;;;;;12.80;53.90;;;11.51;36.96;95565.53;10346098;28;1941;-86
2021/03/04 16:46:22;;;;;;;;;;;12.60;54.60;;;11.27;37.51;95562.81;10337229;28;1496;-88
2021/03/04 16:51:27;;;;;;;;;;;12.40;55.20;;;11.15;38.02;95565.06;10339343;28;1951;-90
2021/03/04 16:56:30;;;;;;;;;;;12.20;55.80;;;11.02;38.77;95566.53;10357291;28;1921;-90
2021/03/04 17:01:36;;;;;;;;;;;12.20;56.40;;;10.89;39.35;95567.16;10361592;28;2110;-87
2021/03/04 17:12:05;;;;;;;;;;;11.90;57.50;;;10.54;40.40;95560.91;10346207;23;1852;-87
2021/03/04 17:17:14;;;;;;;;;;;11.70;57.80;;;10.34;41.15;95563.72;10346328;28;1949;-87
2021/03/04 17:22:19;;;;;;;;;;;11.50;58.60;;;10.28;41.44;95563.75;10345560;28;1628;-91
2021/03/04 17:27:41;;;;;;;;;;;11.40;59.20;;;10.26;41.50;95562.44;10353469;28;1371;-88
2021/03/04 17:33:08;;;;;;;;;;;11.30;59.60;;;10.26;42.08;95563.22;10341804;28;1891;-88
2021/03/04 17:38:16;;;;;;;;;;;11.30;60.10;;;10.37;41.72;95563.16;10338057;28;1642;-87
2021/03/04 17:43:28;;;;;;;;;;;11.30;60.10;;;10.26;41.96;95563.22;10320071;28;2401;-87
2021/03/04 17:48:34;;;;;;;;;;;11.20;60.20;;;10.20;41.34;95564.31;10338999;28;1698;-88
2021/03/04 17:53:43;;;;;;;;;;;11.20;60.00;;;10.14;40.76;95560.03;10334069;28;1890;-86
2021/03/04 17:58:51;;;;;;;;;;;11.10;59.50;;;10.09;40.30;95565.41;10427643;23;3681;-85
2021/03/04 18:03:59;;;;;;;;;;;11.10;58.90;;;10.02;40.20;95559.53;10387302;28;2180;-85
2021/03/04 18:09:07;;;;;;;;;;;11.00;58.80;;;9.96;40.59;95555.28;10352195;28;2060;-85
2021/03/04 18:14:13;;;;;;;;;;;11.00;58.70;;;9.82;39.83;95556.94;10356264;28;2112;-85
2021/03/04 18:19:28;;;;;;;;;;;10.90;58.40;;;9.66;40.67;95551.59;10359236;28;2292;-84
2021/03/04 18:24:44;;;;;;;;;;;10.70;58.50;;;9.59;40.34;95551.09;10349005;28;2028;-87
2021/03/04 18:29:49;;;;;;;;;;;10.60;58.30;;;9.61;40.14;95538.22;10373190;28;1843;-88
2021/03/04 18:34:57;;;;;;;;;;;10.60;58.50;;;9.61;40.08;95538.22;10370636;28;1895;-86
2021/03/04 18:40:07;;;;;;;;;;;10.60;58.60;;;9.69;40.15;95532.28;10383189;28;1761;-85
2021/03/04 18:45:13;;;;;;;;;;;10.60;58.60;;;9.79;39.82;95527.94;10385005;28;1997;-86
2021/03/04 18:50:19;;;;;;;;;;;10.70;58.50;;;9.84;39.87;95534.09;10362178;28;1885;-87
2021/03/04 18:55:25;;;;;;;;;;;10.80;58.60;;;9.84;40.31;95525.25;10373178;28;1931;-86
2021/03/04 19:00:31;;;;;;;;;;;10.80;58.70;;;9.81;40.87;95525.81;10371107;28;1717;-85
2021/03/04 19:05:43;;;;;;;;;;;10.70;59.20;;;9.66;41.32;95516.72;10366951;28;1771;-88
2021/03/04 19:10:58;;;;;;;;;;;10.70;59.70;;;9.57;42.29;95501.47;10386212;28;1928;-88
2021/03/04 19:16:12;;;;;;;;;;;10.60;60.00;;;9.44;42.61;95511.69;10382566;28;2083;-86
2021/03/04 19:21:38;;;;;;;;;;;10.50;60.60;;;9.36;42.44;95506.09;10375590;28;1792;-85
2021/03/04 19:26:48;;;;;;;;;;;10.40;61.10;;;9.25;43.33;95493.78;10355258;28;1875;-85
2021/03/04 19:32:05;;;;;;;;;;;10.30;61.60;;;9.20;43.85;95492.69;10381190;28;2014;-88
2021/03/04 19:37:14;;;;;;;;;;;10.20;61.90;;;9.17;43.85;95490.56;10354796;28;2081;-84
2021/03/04 19:42:21;;;;;;;;;;;10.20;62.20;;;9.11;43.87;95497.03;10377464;28;2034;-83
2021/03/04 19:47:26;;;;;;;;;;;10.10;62.70;;;9.02;44.12;95497.81;10354868;28;2083;-84
2021/03/04 19:52:47;;;;;;;;;;;10.00;62.70;;;9.09;44.04;95499.16;10359862;28;2192;-85
2021/03/04 19:57:55;;;;;;;;;;;10.00;62.80;;;9.19;44.25;95493.78;10355537;28;1906;-84
2021/03/04 20:03:09;;;;;;;;;;;10.10;63.00;;;9.24;44.36;95489.50;10391644;28;1494;-86
2021/03/04 20:08:26;;;;;;;;;;;10.10;62.80;;;9.29;44.08;95500.19;10359064;28;1685;-87
2021/03/04 20:13:58;;;;;;;;;;;10.20;62.70;;;9.24;44.00;95506.38;10363095;28;1887;-84
2021/03/04 20:19:28;;;;;;;;;;;10.20;62.80;;;9.18;44.50;95502.91;10385886;28;1939;-85
2021/03/04 20:30:17;;;;;;;;;;;10.10;63.30;;;9.09;45.20;95504.50;10363987;28;1395;-86
2021/03/04 20:35:34;;;;;;;;;;;10.00;63.80;;;9.13;45.75;95494.84;10373098;28;2022;-88
2021/03/04 20:40:46;;;;;;;;;;;10.00;64.20;;;9.11;45.92;95488.19;10367091;28;1815;-84
2021/03/04 20:46:11;;;;;;;;;;;10.00;64.80;;;9.08;46.29;95496.75;10350504;28;1788;-86
2021/03/04 20:51:20;;;;;;;;;;;10.00;65.10;;;9.09;46.30;95499.16;10349724;28;2014;-85
2021/03/04 20:56:36;;;;;;;;;;;10.00;65.40;;;9.08;46.81;95502.91;10343272;28;1903;-86
2021/03/04 21:01:50;;;;;;;;;;;10.00;65.70;;;9.08;47.16;95502.91;10353817;28;1748;-86
2021/03/04 21:06:57;;;;;;;;;;;10.00;65.80;;;9.01;47.12;95510.44;10367670;28;1990;-85
2021/03/04 21:12:02;;;;;;;;;;;10.00;66.20;;;8.96;47.75;95518.47;10349345;28;2106;-88
2021/03/04 21:17:12;;;;;;;;;;;9.90;66.60;;;8.96;48.11;95542.59;10366317;28;1970;-85
2021/03/04 21:22:15;;;;;;;;;;;9.90;67.30;;;8.57;55.13;95551.16;10363696;28;1668;-87
2021/03/04 21:27:18;;;;;;;;;;;10.40;73.20;;;7.91;62.40;95560.88;10377194;28;1841;-87
2021/03/04 21:32:27;;;;;;;;;;;9.20;79.70;;;7.69;64.93;95566.38;10366964;28;1825;-88
2021/03/04 21:37:32;;;;;;;;;;;10.30;83.40;;;7.65;66.78;95574.13;10342188;28;2015;-89
2021/03/04 22:13:19;;;;;;;;;;;7.40;99.90;;;5.33;87.58;95609.69;10029525;29;2159;-86
2021/03/04 23:19:16;;;;;;;;;;;6.20;99.90;;;5.26;88.61;95556.56;10159332;29;1680;-88
2021/03/04 23:36:17;;;;;;;;;;;7.50;99.90;;;5.26;88.73;95571.75;10343816;28;1977;-86
2021/03/04 23:41:47;;;;;;;;;;;7.20;99.90;;;5.22;89.40;95568.78;10338450;28;2286;-85
2021/03/04 23:47:07;;;;;;;;;;;6.10;99.90;;;5.28;89.89;95580.28;10347858;28;1870;-84
2021/03/04 23:52:48;;;;;;;;;;;6.30;99.90;;;5.22;89.70;95578.63;10338132;28;1334;-86
